Time;durP1;ratioP1;P1;durP2;ratioP2;P2;SDS_P1;SDS_P2;PMS_P1;PMS_P2;Temp;Humidity;BMP_temperature;BMP_pressure;BME280_temperature;BME280_humidity;BME280_pressure;Samples;Min_cycle;Max_cycle;Signal;HPM_P1;HPM_P2
2023/09/26 00:02:41;;;;;;;0.00;0.00;;;;;;;-145.06;100.00;56185.53;10397714;28;20018;-64
2023/09/26 00:07:42;;;;;;;0.10;0.10;;;;;;;-145.06;100.00;56189.56;10375426;28;20168;-64
2023/09/26 00:12:42;;;;;;;0.00;0.00;;;;;;;-145.06;100.00;56203.75;10384024;28;20313;-65
2023/09/26 00:17:43;;;;;;;0.00;0.00;;;;;;;-145.06;100.00;56173.38;10388851;28;20136;-65
2023/09/26 00:22:44;;;;;;;0.00;0.00;;;;;;;-145.06;100.00;56173.38;10402588;28;20069;-64
2023/09/26 00:27:44;;;;;;;0.00;0.00;;;;;;;-145.06;100.00;56222.00;10391124;28;20044;-64
2023/09/26 00:32:44;;;;;;;0.10;0.10;;;;;;;-145.06;100.00;56171.34;10399387;28;20504;-65
2023/09/26 00:37:49;;;;;;;0.10;0.10;;;;;;;-145.06;100.00;56163.25;10403193;28;20024;-65
2023/09/26 00:42:50;;;;;;;0.10;0.10;;;;;;;-145.06;100.00;56219.97;10395313;28;20037;-65
2023/09/26 00:47:50;;;;;;;0.00;0.00;;;;;;;-145.06;100.00;56193.63;10394296;28;20032;-65
2023/09/26 00:52:53;;;;;;;0.10;0.10;;;;;;;-145.06;100.00;56195.66;10392849;28;20389;-65
2023/09/26 00:57:54;;;;;;;0.00;0.00;;;;;;;-145.06;100.00;56189.56;10387751;28;20031;-65
2023/09/26 01:02:56;;;;;;;0.05;0.05;;;;;;;-145.06;100.00;56205.78;10384793;28;20021;-65
2023/09/26 01:07:56;;;;;;;0.00;0.00;;;;;;;-145.06;100.00;56197.69;10397897;28;20021;-64
2023/09/26 01:12:56;;;;;;;0.10;0.10;;;;;;;-145.06;100.00;56181.47;10396941;28;20416;-64
2023/09/26 01:17:57;;;;;;;0.03;0.03;;;;;;;-145.06;100.00;56159.19;10399490;28;20025;-64
2023/09/26 01:23:04;;;;;;;0.00;0.00;;;;;;;-145.06;100.00;56157.16;10396636;28;20351;-64
2023/09/26 01:28:07;;;;;;;0.10;0.10;;;;;;;-145.06;100.00;56167.28;10390706;28;20017;-65
2023/09/26 01:33:11;;;;;;;0.00;0.00;;;;;;;-145.06;100.00;56167.28;10392497;28;20037;-64
2023/09/26 01:38:11;;;;;;;0.00;0.00;;;;;;;-145.06;100.00;56169.31;10374745;28;20127;-65
2023/09/26 01:43:11;;;;;;;0.00;0.00;;;;;;;-145.06;100.00;56161.22;10392416;28;20109;-65
2023/09/26 01:48:12;;;;;;;0.00;0.00;;;;;;;-145.06;100.00;56161.22;10376260;28;20100;-65
2023/09/26 01:53:14;;;;;;;0.00;0.00;;;;;;;-145.06;100.00;56189.56;10387888;28;20045;-65
2023/09/26 01:58:14;;;;;;;0.00;0.00;;;;;;;-145.06;100.00;56165.25;10392783;28;20627;-65
2023/09/26 02:03:15;;;;;;;0.00;0.00;;;;;;;-145.06;100.00;56153.09;10389345;28;20025;-64
2023/09/26 02:08:16;;;;;;;0.10;0.10;;;;;;;-145.06;100.00;56163.25;10386767;28;20032;-64
2023/09/26 02:13:16;;;;;;;0.00;0.00;;;;;;;-145.06;100.00;56153.09;10387687;28;20028;-64
2023/09/26 02:18:17;;;;;;;0.00;0.00;;;;;;;-145.06;100.00;56145.00;10391808;28;20109;-64
2023/09/26 02:23:17;;;;;;;0.10;0.10;;;;;;;-145.06;100.00;56128.78;10391730;28;20067;-63
2023/09/26 02:28:18;;;;;;;0.00;0.00;;;;;;;-145.06;100.00;56122.72;10389198;28;20105;-64
2023/09/26 02:33:19;;;;;;;0.00;0.00;;;;;;;-145.06;100.00;56132.84;10386543;28;20037;-64
2023/09/26 02:38:19;;;;;;;0.10;0.10;;;;;;;-145.06;100.00;56130.81;10386211;28;20445;-64
2023/09/26 02:43:19;;;;;;;0.00;0.00;;;;;;;-145.06;100.00;56157.16;10390934;28;20024;-64
2023/09/26 02:48:20;;;;;;;0.05;0.05;;;;;;;-145.06;100.00;56169.31;10387069;28;20030;-64
2023/09/26 02:53:20;;;;;;;0.00;0.00;;;;;;;-145.06;100.00;56136.91;10401399;28;20042;-64
2023/09/26 02:58:20;;;;;;;0.00;0.00;;;;;;;-145.06;100.00;56153.09;10374738;28;20152;-64
2023/09/26 03:03:21;;;;;;;0.10;0.10;;;;;;;-145.06;100.00;56112.59;10375276;28;20045;-64
2023/09/26 03:08:22;;;;;;;0.00;0.00;;;;;;;-145.06;100.00;56126.75;10385426;28;20116;-64
2023/09/26 03:13:22;;;;;;;0.00;0.00;;;;;;;-145.06;100.00;56145.00;10375659;28;20018;-64
2023/09/26 03:18:22;;;;;;;0.00;0.00;;;;;;;-145.06;100.00;56157.16;10391300;28;20353;-64
2023/09/26 03:23:25;;;;;;;0.00;0.00;;;;;;;-145.06;100.00;56136.91;10386197;28;20022;-64
2023/09/26 03:28:25;;;;;;;0.00;0.00;;;;;;;-145.06;100.00;56138.91;10398467;28;20021;-64
2023/09/26 03:33:25;;;;;;;0.00;0.00;;;;;;;-145.06;100.00;56134.88;10384919;28;20439;-65
2023/09/26 03:38:26;;;;;;;0.00;0.00;;;;;;;-145.06;100.00;56116.63;10389779;28;20105;-64
2023/09/26 03:43:28;;;;;;;0.00;0.00;;;;;;;-145.06;100.00;56142.97;10391967;28;20029;-64
2023/09/26 03:48:29;;;;;;;0.00;0.00;;;;;;;-145.06;100.00;56151.06;10391844;28;20094;-65
2023/09/26 03:53:30;;;;;;;0.00;0.00;;;;;;;-145.06;100.00;56124.75;10395466;28;20077;-65
2023/09/26 03:58:31;;;;;;;0.00;0.00;;;;;;;-145.06;100.00;56110.56;10387036;28;20320;-65
2023/09/26 04:03:32;;;;;;;0.00;0.00;;;;;;;-145.06;100.00;56147.03;10389535;28;20028;-67
2023/09/26 04:08:32;;;;;;;0.07;0.07;;;;;;;-145.06;100.00;56157.16;10395066;28;20037;-65
2023/09/26 04:13:32;;;;;;;0.10;0.10;;;;;;;-145.06;100.00;56124.75;10388649;28;20570;-65
2023/09/26 04:18:33;;;;;;;0.00;0.00;;;;;;;-145.06;100.00;56145.00;10387422;28;20167;-65
2023/09/26 04:23:33;;;;;;;0.00;0.00;;;;;;;-145.06;100.00;56130.81;10387774;28;20021;-65
2023/09/26 04:28:33;;;;;;;0.00;0.00;;;;;;;-145.06;100.00;56161.22;10383384;28;21048;-64
2023/09/26 04:33:34;;;;;;;0.05;0.05;;;;;;;-145.06;100.00;56100.41;10394240;28;20034;-65
2023/09/26 04:38:35;;;;;;;0.00;0.00;;;;;;;-145.06;100.00;56128.78;10398954;28;20132;-65
2023/09/26 04:43:36;;;;;;;0.00;0.00;;;;;;;-145.06;100.00;56130.81;10385382;28;20033;-65
2023/09/26 04:48:39;;;;;;;0.00;0.00;;;;;;;-145.06;100.00;56132.84;10399612;28;20428;-65
2023/09/26 04:53:40;;;;;;;0.00;0.00;;;;;;;-145.06;100.00;56147.03;10385252;28;20021;-65
2023/09/26 04:58:40;;;;;;;0.00;0.00;;;;;;;-145.06;100.00;56108.53;10384866;28;20036;-65
2023/09/26 05:03:42;;;;;;;0.10;0.10;;;;;;;-145.06;100.00;56124.75;10386169;28;20081;-64
2023/09/26 05:08:44;;;;;;;0.00;0.00;;;;;;;-145.06;100.00;56118.66;10389835;28;20021;-64
2023/09/26 05:13:44;;;;;;;0.00;0.00;;;;;;;-145.06;100.00;56128.78;10390260;28;20032;-64
2023/09/26 05:18:45;;;;;;;0.00;0.00;;;;;;;-145.06;100.00;56124.75;10380286;28;20021;-64
2023/09/26 05:23:45;;;;;;;0.00;0.00;;;;;;;-145.06;100.00;56098.41;10392558;28;20076;-64
2023/09/26 05:28:45;;;;;;;0.00;0.00;;;;;;;-145.06;100.00;56063.94;10395438;28;20013;-64
2023/09/26 05:33:45;;;;;;;0.00;0.00;;;;;;;-145.06;100.00;56039.63;10384129;28;20022;-64
2023/09/26 05:38:46;;;;;;;0.10;0.10;;;;;;;-145.06;100.00;56072.06;10382755;28;20362;-64
2023/09/26 05:43:46;;;;;;;0.10;0.10;;;;;;;-145.06;100.00;56145.00;10390347;28;20367;-64
2023/09/26 05:48:47;;;;;;;0.10;0.10;;;;;;;-145.06;100.00;56230.09;10392793;28;20022;-65
2023/09/26 05:53:47;;;;;;;0.10;0.10;;;;;;;-145.06;100.00;56329.41;10384526;28;20304;-65
2023/09/26 05:58:49;;;;;;;0.10;0.10;;;;;;;-145.06;100.00;56353.72;10390754;28;20017;-65
2023/09/26 06:03:50;;;;;;;0.10;0.10;;;;;;;-145.06;98.50;56594.88;10386103;28;20104;-65
2023/09/26 06:08:51;;;;;;;0.10;0.10;;;;;;;-145.06;99.33;56412.47;10390619;28;20022;-65
2023/09/26 06:13:54;;;;;;;0.00;0.00;;;;;;;-145.06;91.75;56584.72;10381256;28;20021;-65
2023/09/26 06:18:56;;;;;;;0.05;0.05;;;;;;;-145.06;83.47;56882.66;10381117;28;20026;-65
2023/09/26 06:23:56;;;;;;;0.10;0.10;;;;;;;-145.06;86.62;56722.53;10387944;28;20022;-63
2023/09/26 06:28:56;;;;;;;0.00;0.00;;;;;;;-145.06;90.02;56649.59;10384017;28;20499;-64
2023/09/26 06:34:00;;;;;;;0.00;0.00;;;;;;;-145.06;89.53;56621.22;10387251;28;20393;-64
2023/09/26 06:39:00;;;;;;;0.00;0.00;;;;;;;-145.06;87.79;56611.06;10386703;28;20022;-65
2023/09/26 06:44:00;;;;;;;0.00;0.00;;;;;;;-145.06;90.19;56607.03;10378893;28;20029;-65
2023/09/26 06:49:00;;;;;;;0.10;0.10;;;;;;;-145.06;88.46;56611.06;10388741;28;20120;-65
2023/09/26 06:54:01;;;;;;;0.00;0.00;;;;;;;-145.06;82.88;56728.63;10383824;28;20026;-65
2023/09/26 06:59:01;;;;;;;0.00;0.00;;;;;;;-145.06;84.36;56876.56;10388291;28;20030;-65
2023/09/26 07:04:02;;;;;;;0.00;0.00;;;;;;;-145.06;89.88;56750.91;10386979;28;20033;-65
2023/09/26 07:09:04;;;;;;;0.00;0.00;;;;;;;-145.06;94.08;56679.97;10382500;28;20030;-65
2023/09/26 07:14:04;;;;;;;0.10;0.10;;;;;;;-145.06;93.88;56655.66;10376226;28;20026;-65
2023/09/26 07:19:05;;;;;;;0.00;0.00;;;;;;;-145.06;98.71;56635.41;10383169;28;20026;-65
2023/09/26 07:24:05;;;;;;;0.00;0.00;;;;;;;-145.06;98.82;56609.06;10379323;28;20337;-65
2023/09/26 07:29:07;;;;;;;0.00;0.00;;;;;;;-145.06;97.16;56627.28;10385495;28;20513;-64
2023/09/26 07:34:08;;;;;;;0.00;0.00;;;;;;;-145.06;92.52;56663.78;10385615;28;20121;-65
2023/09/26 07:39:08;;;;;;;0.10;0.10;;;;;;;-145.06;88.90;56870.47;10386923;28;20341;-65
2023/09/26 07:44:09;;;;;;;0.00;0.00;;;;;;;-145.06;80.65;56846.16;10385061;28;20480;-65
2023/09/26 07:49:09;;;;;;;0.00;0.00;;;;;;;-145.06;80.71;56911.03;10384223;28;20571;-65
2023/09/26 07:54:11;;;;;;;0.05;0.05;;;;;;;-145.06;75.35;57006.28;10384491;28;20587;-64
2023/09/26 07:59:11;;;;;;;0.10;0.10;;;;;;;-145.06;72.25;57008.31;10386621;28;20075;-64
2023/09/26 08:04:11;;;;;;;0.00;0.00;;;;;;;-145.06;70.78;57040.72;10384008;28;20018;-65
2023/09/26 08:09:12;;;;;;;0.00;0.00;;;;;;;-145.06;66.26;57085.31;10393173;28;20013;-65
2023/09/26 08:14:12;;;;;;;0.00;0.00;;;;;;;-145.06;70.01;57079.25;10386122;28;20318;-65
2023/09/26 08:19:13;;;;;;;0.10;0.10;;;;;;;-145.06;70.03;57093.44;10396205;28;20025;-65
2023/09/26 08:24:13;;;;;;;0.00;0.00;;;;;;;-145.06;71.26;57146.13;10388685;28;20101;-65
2023/09/26 08:29:13;;;;;;;0.00;0.00;;;;;;;-145.06;65.27;57184.63;10384661;28;20046;-66
2023/09/26 08:34:14;;;;;;;0.00;0.00;;;;;;;-145.06;65.69;57202.88;10386257;28;20026;-65
2023/09/26 08:39:14;;;;;;;0.00;0.00;;;;;;;-145.06;65.75;57277.88;10395691;28;20136;-65
2023/09/26 08:44:14;;;;;;;0.00;0.00;;;;;;;-145.06;64.77;57391.38;10390880;28;20107;-65
2023/09/26 08:49:15;;;;;;;0.07;0.07;;;;;;;-145.06;64.91;57365.03;10386856;28;20044;-65
2023/09/26 08:54:15;;;;;;;0.00;0.00;;;;;;;-145.06;62.40;57460.28;10398067;28;20101;-65
2023/09/26 08:59:18;;;;;;;0.00;0.00;;;;;;;-145.06;60.32;57419.75;10393419;28;20408;-66
2023/09/26 09:04:20;;;;;;;0.00;0.00;;;;;;;-145.06;61.60;57360.97;10390927;28;20448;-66
2023/09/26 09:09:21;;;;;;;0.00;0.00;;;;;;;-145.06;65.35;57316.38;10390653;28;20108;-66
2023/09/26 09:14:32;;;;;;;0.00;0.00;;;;;;;-145.06;67.08;57409.63;10378911;28;20042;-65
2023/09/26 09:19:53;;;;;;;0.00;0.00;;;;;;;-145.06;59.49;57557.59;10394303;28;20374;-65
2023/09/26 09:24:55;;;;;;;0.00;0.00;;;;;;;-145.06;62.35;57510.97;10381158;28;20038;-65
2023/09/26 09:30:07;;;;;;;0.10;0.10;;;;;;;-145.06;62.17;57545.44;10384363;28;20136;-65
2023/09/26 09:35:13;;;;;;;0.10;0.10;;;;;;;-145.06;64.66;57466.38;10388614;28;20028;-65
2023/09/26 09:40:20;;;;;;;0.00;0.00;;;;;;;-145.06;61.46;57438.00;10385399;28;20021;-65
2023/09/26 09:45:20;;;;;;;0.00;0.00;;;;;;;-145.06;66.72;57381.25;10391802;28;20030;-65
2023/09/26 09:50:21;;;;;;;0.00;0.00;;;;;;;-145.06;68.41;57409.63;10394322;28;20032;-65
2023/09/26 09:55:28;;;;;;;0.00;0.00;;;;;;;-145.06;63.01;57521.09;10381507;28;20284;-66
2023/09/26 10:00:31;;;;;;;0.00;0.00;;;;;;;-145.06;67.42;57513.00;10382819;28;20492;-65
2023/09/26 10:05:34;;;;;;;0.00;0.00;;;;;;;-145.06;68.79;57450.16;10384890;28;20048;-65
2023/09/26 10:10:35;;;;;;;0.00;0.00;;;;;;;-145.06;66.67;57508.94;10384055;28;20018;-66
2023/09/26 10:16:17;;;;;;;0.00;0.00;;;;;;;-145.06;69.34;57478.53;10383556;28;20034;-65
2023/09/26 10:21:26;;;;;;;0.00;0.00;;;;;;;-145.06;62.83;57496.78;10378345;28;20367;-66
2023/09/26 10:26:26;;;;;;;0.00;0.00;;;;;;;-145.06;68.61;57395.44;10384764;28;20104;-66
2023/09/26 10:31:31;;;;;;;0.00;0.00;;;;;;;-145.06;73.66;57391.38;10385724;28;20089;-65
2023/09/26 10:36:31;;;;;;;0.00;0.00;;;;;;;-145.06;70.88;57417.72;10388537;28;20029;-65
2023/09/26 10:41:32;;;;;;;0.00;0.00;;;;;;;-145.06;67.85;57466.38;10375033;28;20401;-65
2023/09/26 10:46:32;;;;;;;0.10;0.10;;;;;;;-145.06;74.55;57371.09;10386418;28;20025;-65
2023/09/26 10:51:33;;;;;;;0.00;0.00;;;;;;;-145.06;70.42;57539.34;10382871;28;20038;-65
2023/09/26 10:56:34;;;;;;;0.00;0.00;;;;;;;-145.06;69.47;57458.25;10387150;28;20026;-65
2023/09/26 11:01:38;;;;;;;0.00;0.00;;;;;;;-145.06;64.59;57585.97;10384113;28;20018;-65
2023/09/26 11:06:39;;;;;;;0.00;0.00;;;;;;;-145.06;70.30;57490.69;10381902;28;20253;-65
2023/09/26 11:11:40;;;;;;;0.00;0.00;;;;;;;-145.06;68.85;57502.84;10385314;28;20426;-65
2023/09/26 11:16:41;;;;;;;0.00;0.00;;;;;;;-145.06;67.93;57474.47;10376855;28;20022;-65
2023/09/26 11:21:42;;;;;;;0.00;0.00;;;;;;;-145.06;69.17;57450.16;10381955;28;20021;-65
2023/09/26 11:26:43;;;;;;;0.00;0.00;;;;;;;-145.06;70.51;57417.72;10380598;28;20033;-65
2023/09/26 11:31:45;;;;;;;0.00;0.00;;;;;;;-145.06;69.43;57401.50;10379771;28;20454;-65
2023/09/26 11:36:48;;;;;;;0.00;0.00;;;;;;;-145.06;72.16;57308.28;10378832;28;20018;-66
2023/09/26 11:42:08;;;;;;;0.00;0.00;;;;;;;-145.06;75.89;57308.28;10374394;28;20024;-65
2023/09/26 11:47:09;;;;;;;0.00;0.00;;;;;;;-145.06;71.53;57399.47;10376151;28;20034;-65
2023/09/26 11:52:10;;;;;;;0.00;0.00;;;;;;;-145.06;73.76;57383.28;10384970;28;20031;-65
2023/09/26 11:57:13;;;;;;;0.00;0.00;;;;;;;-145.06;72.46;57330.56;10384071;28;20022;-65
2023/09/26 12:02:13;;;;;;;0.00;0.00;;;;;;;-145.06;74.17;57332.59;10387932;28;20041;-65
2023/09/26 12:07:14;;;;;;;0.00;0.00;;;;;;;-145.06;71.15;57403.53;10394352;28;20029;-65
2023/09/26 12:12:14;;;;;;;0.00;0.00;;;;;;;-145.06;71.79;57403.53;10389015;28;20103;-66
2023/09/26 12:17:14;;;;;;;0.00;0.00;;;;;;;-145.06;70.86;57421.78;10387019;28;20428;-65
2023/09/26 12:22:16;;;;;;;0.10;0.10;;;;;;;-145.06;74.31;57389.34;10389005;28;20041;-65
2023/09/26 12:27:16;;;;;;;0.00;0.00;;;;;;;-145.06;71.70;57474.47;10390732;28;20024;-65
2023/09/26 12:32:17;;;;;;;0.00;0.00;;;;;;;-145.06;71.38;57438.00;10389784;28;20121;-65
2023/09/26 12:37:17;;;;;;;0.00;0.00;;;;;;;-145.06;72.62;57470.44;10390702;28;20026;-65
2023/09/26 12:42:17;;;;;;;0.00;0.00;;;;;;;-145.06;71.50;57519.06;10381617;28;20053;-65
2023/09/26 12:47:17;;;;;;;0.00;0.00;;;;;;;-145.06;74.67;57535.28;10391079;28;20442;-65
2023/09/26 12:52:18;;;;;;;0.00;0.00;;;;;;;-145.06;69.66;57585.97;10386954;28;20022;-65
2023/09/26 12:57:18;;;;;;;0.00;0.00;;;;;;;-145.06;67.78;57620.44;10381472;28;20494;-65
2023/09/26 13:02:19;;;;;;;0.00;0.00;;;;;;;-145.06;66.69;57626.50;10380384;28;20605;-65
2023/09/26 13:07:21;;;;;;;0.00;0.00;;;;;;;-145.06;61.67;57681.25;10396108;28;20520;-66
2023/09/26 13:12:21;;;;;;;0.00;0.00;;;;;;;-145.06;61.77;57665.03;10384409;28;20472;-65
2023/09/26 13:17:21;;;;;;;0.00;0.00;;;;;;;-145.06;56.83;57707.59;10383741;28;20022;-66
2023/09/26 13:22:22;;;;;;;0.00;0.00;;;;;;;-145.06;63.11;57592.06;10397700;28;20030;-65
2023/09/26 13:27:23;;;;;;;0.00;0.00;;;;;;;-145.06;62.76;57581.91;10384846;28;20404;-65
2023/09/26 13:32:24;;;;;;;0.00;0.00;;;;;;;-145.06;65.31;57565.69;10390247;28;20147;-65
2023/09/26 13:37:24;;;;;;;0.00;0.00;;;;;;;-145.06;61.63;57667.06;10382974;28;20116;-65
2023/09/26 13:42:24;;;;;;;0.00;0.00;;;;;;;-145.06;63.80;57636.66;10381370;28;20032;-65
2023/09/26 13:47:25;;;;;;;0.00;0.00;;;;;;;-145.06;62.40;57652.84;10383621;28;20041;-65
2023/09/26 13:52:26;;;;;;;0.00;0.00;;;;;;;-145.06;59.88;57715.69;10382859;28;20615;-66
2023/09/26 13:57:26;;;;;;;0.00;0.00;;;;;;;-145.06;62.89;57695.44;10395447;28;20374;-66
2023/09/26 14:02:26;;;;;;;0.10;0.10;;;;;;;-145.06;62.74;57673.13;10380572;28;20021;-66
2023/09/26 14:07:26;;;;;;;0.00;0.00;;;;;;;-145.06;64.66;57616.38;10390521;28;20113;-65
2023/09/26 14:12:27;;;;;;;0.00;0.00;;;;;;;-145.06;64.02;57656.91;10382770;28;20341;-65
2023/09/26 14:17:27;;;;;;;0.10;0.10;;;;;;;-145.06;65.63;57596.09;10390537;28;20088;-65
2023/09/26 14:22:28;;;;;;;0.00;0.00;;;;;;;-145.06;70.81;57508.94;10387759;28;20750;-65
2023/09/26 14:27:28;;;;;;;0.00;0.00;;;;;;;-145.06;70.58;57539.34;10389595;28;20025;-65
2023/09/26 14:32:28;;;;;;;0.00;0.00;;;;;;;-145.06;72.24;57494.75;10387488;28;20039;-65
2023/09/26 14:37:29;;;;;;;0.00;0.00;;;;;;;-145.06;72.46;57480.56;10382117;28;20024;-65
2023/09/26 14:42:29;;;;;;;0.00;0.00;;;;;;;-145.06;72.28;57506.91;10394038;28;20025;-65
2023/09/26 14:47:30;;;;;;;0.10;0.10;;;;;;;-145.06;75.82;57425.84;10389388;28;20116;-66
2023/09/26 14:52:30;;;;;;;0.00;0.00;;;;;;;-145.06;75.43;57454.22;10384431;28;20018;-65
2023/09/26 14:57:30;;;;;;;0.10;0.10;;;;;;;-145.06;78.38;57360.97;10387377;28;20480;-65
2023/09/26 15:02:31;;;;;;;0.00;0.00;;;;;;;-145.06;75.01;57415.69;10392561;28;20026;-66
2023/09/26 15:07:31;;;;;;;0.00;0.00;;;;;;;-145.06;70.55;57496.78;10393784;28;20029;-65
2023/09/26 15:12:32;;;;;;;0.00;0.00;;;;;;;-145.06;69.74;57494.75;10377691;28;20014;-65
2023/09/26 15:17:32;;;;;;;0.00;0.00;;;;;;;-145.06;70.69;57464.34;10384366;28;20021;-66
2023/09/26 15:22:32;;;;;;;0.00;0.00;;;;;;;-145.06;73.84;57401.50;10387220;28;20021;-65
2023/09/26 15:27:33;;;;;;;0.10;0.10;;;;;;;-145.06;76.58;57391.38;10382011;28;20038;-65
2023/09/26 15:32:33;;;;;;;0.00;0.00;;;;;;;-145.06;72.05;57425.84;10381383;28;20060;-65
2023/09/26 15:37:34;;;;;;;0.00;0.00;;;;;;;-145.06;71.62;57397.47;10378103;28;20034;-65
2023/09/26 15:42:34;;;;;;;0.00;0.00;;;;;;;-145.06;74.30;57342.72;10386813;28;20018;-65
2023/09/26 15:47:35;;;;;;;0.10;0.10;;;;;;;-145.06;81.96;57300.16;10382312;28;20212;-65
2023/09/26 15:52:35;;;;;;;0.00;0.00;;;;;;;-145.06;76.23;57352.88;10381784;28;20032;-65
2023/09/26 15:57:37;;;;;;;0.00;0.00;;;;;;;-145.06;76.97;57324.50;10378915;28;20021;-66
2023/09/26 16:02:37;;;;;;;0.00;0.00;;;;;;;-145.06;80.20;57261.66;10366139;28;20017;-66
2023/09/26 16:07:37;;;;;;;0.00;0.00;;;;;;;-145.06;79.95;57288.00;10376653;28;20431;-66
2023/09/26 16:12:38;;;;;;;0.00;0.00;;;;;;;-145.06;85.08;57206.94;10373580;28;20032;-66
2023/09/26 16:17:38;;;;;;;0.00;0.00;;;;;;;-145.06;88.68;57148.16;10380406;28;20041;-66
2023/09/26 16:22:38;;;;;;;0.00;0.00;;;;;;;-145.06;93.46;57091.41;10371765;28;20022;-66
2023/09/26 16:27:39;;;;;;;0.00;0.00;;;;;;;-145.06;95.62;57063.03;10376077;28;20024;-66
2023/09/26 16:32:39;;;;;;;0.00;0.00;;;;;;;-145.06;98.66;56971.81;10378750;28;20064;-66
2023/09/26 16:37:39;;;;;;;0.10;0.10;;;;;;;-145.06;99.72;56994.13;10397280;28;20180;-66
2023/09/26 16:42:39;;;;;;;0.10;0.10;;;;;;;-145.06;100.00;56927.22;10389861;28;20022;-66
2023/09/26 16:47:40;;;;;;;0.00;0.00;;;;;;;-145.06;100.00;56917.09;10396479;28;20477;-66
2023/09/26 16:52:40;;;;;;;0.00;0.00;;;;;;;-145.06;100.00;56911.03;10389881;28;20018;-66
2023/09/26 16:57:41;;;;;;;0.10;0.10;;;;;;;-145.06;100.00;56896.84;10401623;28;20021;-66
2023/09/26 17:02:41;;;;;;;0.10;0.10;;;;;;;-145.06;100.00;56846.16;10393489;28;20037;-66
2023/09/26 17:07:41;;;;;;;0.00;0.00;;;;;;;-145.06;100.00;56809.69;10401094;28;20113;-66
2023/09/26 17:12:42;;;;;;;0.10;0.10;;;;;;;-145.06;100.00;56781.31;10388853;28;20108;-66
2023/09/26 17:17:43;;;;;;;0.10;0.10;;;;;;;-145.06;100.00;56785.38;10385540;28;20021;-66
2023/09/26 17:22:43;;;;;;;0.00;0.00;;;;;;;-145.06;100.00;56759.03;10395761;28;20068;-66
2023/09/26 17:27:43;;;;;;;0.00;0.00;;;;;;;-145.06;100.00;56675.94;10399611;28;20095;-66
2023/09/26 17:32:44;;;;;;;0.00;0.00;;;;;;;-145.06;100.00;56698.22;10392116;28;20030;-66
2023/09/26 17:37:44;;;;;;;0.10;0.10;;;;;;;-145.06;100.00;56765.09;10389524;28;20537;-65
2023/09/26 17:42:44;;;;;;;0.00;0.00;;;;;;;-145.06;100.00;56698.22;10380087;28;20029;-66
2023/09/26 17:47:45;;;;;;;0.00;0.00;;;;;;;-145.06;100.00;56692.13;10388538;28;20269;-66
2023/09/26 17:52:45;;;;;;;0.00;0.00;;;;;;;-145.06;100.00;56688.09;10388890;28;20095;-65
2023/09/26 17:57:45;;;;;;;0.00;0.00;;;;;;;-145.06;100.00;56690.13;10391309;28;20104;-65
2023/09/26 18:02:46;;;;;;;0.10;0.10;;;;;;;-145.06;100.00;56663.78;10387468;28;20079;-65
2023/09/26 18:07:48;;;;;;;0.00;0.00;;;;;;;-145.06;100.00;56665.78;10394439;28;20026;-65
2023/09/26 18:12:48;;;;;;;0.10;0.10;;;;;;;-145.06;100.00;56651.59;10398219;28;20079;-65
2023/09/26 18:17:48;;;;;;;0.10;0.10;;;;;;;-145.06;100.00;56663.78;10397966;28;20421;-65
2023/09/26 18:22:49;;;;;;;0.10;0.10;;;;;;;-145.06;100.00;56647.56;10392110;28;20031;-66
2023/09/26 18:27:51;;;;;;;0.10;0.10;;;;;;;-145.06;100.00;56627.28;10391756;28;20018;-65
2023/09/26 18:32:52;;;;;;;0.00;0.00;;;;;;;-145.06;100.00;56621.22;10397053;28;20029;-65
2023/09/26 18:37:52;;;;;;;0.00;0.00;;;;;;;-145.06;100.00;56617.16;10383868;28;20022;-66
2023/09/26 18:42:52;;;;;;;0.10;0.10;;;;;;;-145.06;100.00;56600.94;10383501;28;20026;-66
2023/09/26 18:47:53;;;;;;;0.10;0.10;;;;;;;-145.06;100.00;56570.53;10384319;28;20578;-66
2023/09/26 18:52:53;;;;;;;0.10;0.10;;;;;;;-145.06;100.00;56590.81;10385755;28;20034;-66
2023/09/26 18:57:53;;;;;;;0.10;0.10;;;;;;;-145.06;100.00;56544.19;10394505;28;20042;-66
2023/09/26 19:02:55;;;;;;;0.10;0.10;;;;;;;-145.06;100.00;56556.38;10380652;28;20120;-66
2023/09/26 19:07:55;;;;;;;0.10;0.10;;;;;;;-145.06;100.00;56513.81;10391470;28;20021;-66
2023/09/26 19:12:59;;;;;;;0.00;0.00;;;;;;;-145.06;100.00;56487.47;10386478;28;20666;-66
2023/09/26 19:17:59;;;;;;;0.10;0.10;;;;;;;-145.06;100.00;56515.84;10376688;28;20453;-66
2023/09/26 19:22:59;;;;;;;0.10;0.10;;;;;;;-145.06;100.00;56509.75;10385034;28;20038;-66
2023/09/26 19:28:00;;;;;;;0.10;0.10;;;;;;;-145.06;100.00;56523.94;10382846;28;20121;-65
2023/09/26 19:33:00;;;;;;;0.20;0.20;;;;;;;-145.06;100.00;56517.84;10379430;28;20034;-66
2023/09/26 19:38:01;;;;;;;0.10;0.10;;;;;;;-145.06;100.00;56560.41;10381008;28;20036;-66
2023/09/26 19:43:02;;;;;;;0.10;0.10;;;;;;;-145.06;100.00;56558.38;10381645;28;20101;-66
2023/09/26 19:48:02;;;;;;;0.10;0.10;;;;;;;-145.06;100.00;56530.00;10376059;28;20484;-66
2023/09/26 19:53:02;;;;;;;0.10;0.10;;;;;;;-145.06;100.00;56530.00;10387552;28;20040;-65
2023/09/26 19:58:03;;;;;;;0.10;0.10;;;;;;;-145.06;100.00;56507.72;10388153;28;20044;-66
2023/09/26 20:03:03;;;;;;;0.10;0.10;;;;;;;-145.06;100.00;56521.91;10386825;28;20021;-65
2023/09/26 20:08:04;;;;;;;0.10;0.10;;;;;;;-145.06;100.00;56511.78;10381898;28;20033;-65
2023/09/26 20:13:04;;;;;;;0.10;0.10;;;;;;;-145.06;100.00;56540.16;10391119;28;20291;-66
2023/09/26 20:18:05;;;;;;;0.10;0.10;;;;;;;-145.06;100.00;56495.56;10395127;28;20116;-65
2023/09/26 20:23:07;;;;;;;0.10;0.10;;;;;;;-145.06;100.00;56481.38;10394130;28;20018;-65
2023/09/26 20:28:07;;;;;;;0.10;0.10;;;;;;;-145.06;100.00;56493.53;10383970;28;20117;-65
2023/09/26 20:33:08;;;;;;;0.10;0.10;;;;;;;-145.06;100.00;56440.84;10398155;28;20113;-65
2023/09/26 20:38:09;;;;;;;0.00;0.00;;;;;;;-145.06;100.00;56483.41;10395255;28;20017;-65
2023/09/26 20:43:09;;;;;;;0.10;0.10;;;;;;;-145.06;100.00;56461.13;10388421;28;20029;-65
2023/09/26 20:48:09;;;;;;;0.10;0.10;;;;;;;-145.06;100.00;56446.94;10390570;28;20022;-65
2023/09/26 20:53:11;;;;;;;0.10;0.10;;;;;;;-145.06;100.00;56477.31;10394177;28;20433;-66
2023/09/26 20:58:13;;;;;;;0.00;0.00;;;;;;;-145.06;100.00;56501.66;10396899;28;20029;-66
2023/09/26 21:03:15;;;;;;;0.10;0.10;;;;;;;-145.06;100.00;56453.00;10397832;28;20014;-65
2023/09/26 21:08:15;;;;;;;0.10;0.10;;;;;;;-145.06;100.00;56477.31;10398766;28;20026;-66
2023/09/26 21:13:15;;;;;;;0.10;0.10;;;;;;;-145.06;100.00;56440.84;10399810;28;20026;-66
2023/09/26 21:18:16;;;;;;;0.10;0.10;;;;;;;-145.06;100.00;56446.94;10395546;28;20105;-66
2023/09/26 21:23:16;;;;;;;0.10;0.10;;;;;;;-145.06;100.00;56455.03;10385704;28;20032;-66
2023/09/26 21:28:17;;;;;;;0.10;0.10;;;;;;;-145.06;100.00;56457.06;10396240;28;20555;-66
2023/09/26 21:33:17;;;;;;;0.10;0.10;;;;;;;-145.06;100.00;56481.38;10389645;28;20160;-66
2023/09/26 21:38:18;;;;;;;0.10;0.10;;;;;;;-145.06;100.00;56448.97;10396947;28;20029;-66
2023/09/26 21:43:18;;;;;;;0.10;0.10;;;;;;;-145.06;100.00;56465.16;10395894;28;20116;-65
2023/09/26 21:48:18;;;;;;;0.10;0.10;;;;;;;-145.06;100.00;56465.16;10396724;28;20143;-66
2023/09/26 21:53:19;;;;;;;0.13;0.13;;;;;;;-145.06;100.00;56457.06;10382308;28;20053;-65
2023/09/26 21:58:19;;;;;;;0.10;0.10;;;;;;;-145.06;100.00;56436.81;10401084;28;20017;-66
2023/09/26 22:03:20;;;;;;;0.10;0.10;;;;;;;-145.06;100.00;56446.94;10392310;28;20018;-65
2023/09/26 22:08:20;;;;;;;0.10;0.10;;;;;;;-145.06;100.00;56444.91;10401453;28;20033;-65
2023/09/26 22:13:21;;;;;;;0.00;0.00;;;;;;;-145.06;100.00;56422.63;10394502;28;20018;-66
2023/09/26 22:18:23;;;;;;;0.10;0.10;;;;;;;-145.06;100.00;56463.16;10390860;28;20021;-65
2023/09/26 22:23:25;;;;;;;0.10;0.10;;;;;;;-145.06;100.00;56438.81;10390956;28;20022;-65
2023/09/26 22:28:26;;;;;;;0.10;0.10;;;;;;;-145.06;100.00;56418.56;10393490;28;20022;-65
2023/09/26 22:33:26;;;;;;;0.10;0.10;;;;;;;-145.06;100.00;56422.63;10396738;28;20026;-65
2023/09/26 22:38:27;;;;;;;0.10;0.10;;;;;;;-145.06;100.00;56408.44;10400466;28;20096;-65